sensor_id;sensor_type;location;lat;lon;timestamp;P1;durP1;ratioP1;P2;durP2;ratioP2
39346;SDS011;26262;49.836;6.632;2022-12-18T00:01:45;29.20;;;14.10;;
39346;SDS011;26262;49.836;6.632;2022-12-18T00:04:16;25.67;;;14.20;;
39346;SDS011;26262;49.836;6.632;2022-12-18T00:06:45;30.60;;;13.53;;
39346;SDS011;26262;49.836;6.632;2022-12-18T00:09:11;30.97;;;14.70;;
39346;SDS011;26262;49.836;6.632;2022-12-18T00:11:36;26.13;;;13.47;;
39346;SDS011;26262;49.836;6.632;2022-12-18T00:14:02;31.53;;;14.43;;
39346;SDS011;26262;49.836;6.632;2022-12-18T00:16:27;27.17;;;14.40;;
39346;SDS011;26262;49.836;6.632;2022-12-18T00:18:56;26.07;;;13.93;;
39346;SDS011;26262;49.836;6.632;2022-12-18T00:21:22;27.10;;;13.23;;
39346;SDS011;26262;49.836;6.632;2022-12-18T00:23:48;28.33;;;14.77;;
39346;SDS011;26262;49.836;6.632;2022-12-18T00:26:15;24.83;;;12.60;;
39346;SDS011;26262;49.836;6.632;2022-12-18T00:28:44;27.00;;;14.83;;
39346;SDS011;26262;49.836;6.632;2022-12-18T00:31:11;27.40;;;14.10;;
39346;SDS011;26262;49.836;6.632;2022-12-18T00:33:38;29.23;;;15.13;;
39346;SDS011;26262;49.836;6.632;2022-12-18T00:36:07;26.03;;;13.23;;
39346;SDS011;26262;49.836;6.632;2022-12-18T00:38:34;28.93;;;13.83;;
39346;SDS011;26262;49.836;6.632;2022-12-18T00:41:00;26.53;;;13.40;;
39346;SDS011;26262;49.836;6.632;2022-12-18T00:43:26;24.60;;;12.87;;
39346;SDS011;26262;49.836;6.632;2022-12-18T00:45:52;26.87;;;13.77;;
39346;SDS011;26262;49.836;6.632;2022-12-18T00:48:18;28.53;;;14.30;;
39346;SDS011;26262;49.836;6.632;2022-12-18T00:50:43;26.50;;;13.33;;
39346;SDS011;26262;49.836;6.632;2022-12-18T00:53:09;23.73;;;13.30;;
39346;SDS011;26262;49.836;6.632;2022-12-18T00:55:36;26.07;;;13.57;;
39346;SDS011;26262;49.836;6.632;2022-12-18T00:58:03;27.07;;;13.67;;
39346;SDS011;26262;49.836;6.632;2022-12-18T01:00:29;26.27;;;14.17;;
39346;SDS011;26262;49.836;6.632;2022-12-18T01:02:54;24.87;;;13.57;;
39346;SDS011;26262;49.836;6.632;2022-12-18T01:05:20;27.37;;;14.37;;
39346;SDS011;26262;49.836;6.632;2022-12-18T01:07:46;26.60;;;14.73;;
39346;SDS011;26262;49.836;6.632;2022-12-18T01:10:12;25.00;;;13.67;;
39346;SDS011;26262;49.836;6.632;2022-12-18T01:12:37;28.83;;;13.40;;
39346;SDS011;26262;49.836;6.632;2022-12-18T01:15:03;29.93;;;14.50;;
39346;SDS011;26262;49.836;6.632;2022-12-18T01:17:30;26.15;;;13.10;;
39346;SDS011;26262;49.836;6.632;2022-12-18T01:19:55;30.27;;;13.50;;
39346;SDS011;26262;49.836;6.632;2022-12-18T01:22:21;26.83;;;14.27;;
39346;SDS011;26262;49.836;6.632;2022-12-18T01:24:46;27.33;;;15.17;;
39346;SDS011;26262;49.836;6.632;2022-12-18T01:27:12;28.70;;;13.57;;
39346;SDS011;26262;49.836;6.632;2022-12-18T01:29:37;28.10;;;14.13;;
39346;SDS011;26262;49.836;6.632;2022-12-18T01:32:03;26.30;;;13.50;;
39346;SDS011;26262;49.836;6.632;2022-12-18T01:34:29;28.23;;;14.17;;
39346;SDS011;26262;49.836;6.632;2022-12-18T01:36:54;28.17;;;13.77;;
39346;SDS011;26262;49.836;6.632;2022-12-18T01:39:20;25.13;;;12.40;;
39346;SDS011;26262;49.836;6.632;2022-12-18T01:41:46;24.47;;;12.93;;
39346;SDS011;26262;49.836;6.632;2022-12-18T01:45:27;27.83;;;14.27;;
39346;SDS011;26262;49.836;6.632;2022-12-18T01:49:55;27.93;;;14.20;;
39346;SDS011;26262;49.836;6.632;2022-12-18T01:52:22;30.17;;;14.55;;
39346;SDS011;26262;49.836;6.632;2022-12-18T01:54:51;26.23;;;12.63;;
39346;SDS011;26262;49.836;6.632;2022-12-18T01:57:18;28.90;;;14.43;;
39346;SDS011;26262;49.836;6.632;2022-12-18T01:59:45;29.37;;;14.83;;
39346;SDS011;26262;49.836;6.632;2022-12-18T02:02:15;27.97;;;14.00;;
39346;SDS011;26262;49.836;6.632;2022-12-18T02:04:42;27.25;;;14.57;;
39346;SDS011;26262;49.836;6.632;2022-12-18T02:09:59;25.63;;;13.20;;
39346;SDS011;26262;49.836;6.632;2022-12-18T02:12:46;25.90;;;12.90;;
39346;SDS011;26262;49.836;6.632;2022-12-18T02:15:36;24.03;;;12.77;;
39346;SDS011;26262;49.836;6.632;2022-12-18T02:18:19;24.27;;;12.67;;
39346;SDS011;26262;49.836;6.632;2022-12-18T02:20:49;26.73;;;12.57;;
39346;SDS011;26262;49.836;6.632;2022-12-18T02:23:47;26.43;;;12.83;;
39346;SDS011;26262;49.836;6.632;2022-12-18T02:29:03;23.80;;;12.37;;
39346;SDS011;26262;49.836;6.632;2022-12-18T02:31:35;22.53;;;11.70;;
39346;SDS011;26262;49.836;6.632;2022-12-18T02:34:05;23.53;;;12.30;;
39346;SDS011;26262;49.836;6.632;2022-12-18T02:36:33;26.87;;;13.20;;
39346;SDS011;26262;49.836;6.632;2022-12-18T02:39:01;23.63;;;13.00;;
39346;SDS011;26262;49.836;6.632;2022-12-18T02:41:28;28.37;;;13.93;;
39346;SDS011;26262;49.836;6.632;2022-12-18T02:43:57;27.65;;;12.15;;
39346;SDS011;26262;49.836;6.632;2022-12-18T02:46:28;24.77;;;11.80;;
39346;SDS011;26262;49.836;6.632;2022-12-18T02:49:01;23.33;;;11.47;;
39346;SDS011;26262;49.836;6.632;2022-12-18T02:51:50;21.90;;;11.70;;
39346;SDS011;26262;49.836;6.632;2022-12-18T02:54:37;23.85;;;11.70;;
39346;SDS011;26262;49.836;6.632;2022-12-18T02:57:31;24.23;;;12.70;;
39346;SDS011;26262;49.836;6.632;2022-12-18T03:00:21;23.77;;;11.63;;
39346;SDS011;26262;49.836;6.632;2022-12-18T03:02:57;22.10;;;11.68;;
39346;SDS011;26262;49.836;6.632;2022-12-18T03:05:33;22.40;;;12.27;;
39346;SDS011;26262;49.836;6.632;2022-12-18T03:08:03;22.73;;;11.73;;
39346;SDS011;26262;49.836;6.632;2022-12-18T03:10:32;22.67;;;11.27;;
39346;SDS011;26262;49.836;6.632;2022-12-18T03:13:06;20.30;;;11.00;;
39346;SDS011;26262;49.836;6.632;2022-12-18T03:15:37;20.37;;;11.73;;
39346;SDS011;26262;49.836;6.632;2022-12-18T03:21:04;24.43;;;10.97;;
39346;SDS011;26262;49.836;6.632;2022-12-18T03:23:35;21.70;;;11.33;;
39346;SDS011;26262;49.836;6.632;2022-12-18T03:26:06;22.43;;;11.17;;
39346;SDS011;26262;49.836;6.632;2022-12-18T03:28:35;18.37;;;10.57;;
39346;SDS011;26262;49.836;6.632;2022-12-18T03:31:04;22.83;;;11.73;;
39346;SDS011;26262;49.836;6.632;2022-12-18T03:33:41;20.33;;;10.57;;
39346;SDS011;26262;49.836;6.632;2022-12-18T03:36:22;25.17;;;10.67;;
39346;SDS011;26262;49.836;6.632;2022-12-18T03:38:48;20.37;;;11.20;;
39346;SDS011;26262;49.836;6.632;2022-12-18T03:41:31;22.07;;;11.00;;
39346;SDS011;26262;49.836;6.632;2022-12-18T03:44:13;22.23;;;12.00;;
39346;SDS011;26262;49.836;6.632;2022-12-18T03:52:26;21.67;;;10.17;;
39346;SDS011;26262;49.836;6.632;2022-12-18T03:55:00;19.70;;;10.20;;
39346;SDS011;26262;49.836;6.632;2022-12-18T03:57:28;21.23;;;9.70;;
39346;SDS011;26262;49.836;6.632;2022-12-18T04:00:00;20.83;;;10.27;;
39346;SDS011;26262;49.836;6.632;2022-12-18T04:02:29;21.80;;;10.53;;
39346;SDS011;26262;49.836;6.632;2022-12-18T04:04:57;18.63;;;9.55;;
39346;SDS011;26262;49.836;6.632;2022-12-18T04:07:26;20.73;;;10.23;;
39346;SDS011;26262;49.836;6.632;2022-12-18T04:09:53;21.23;;;11.02;;
39346;SDS011;26262;49.836;6.632;2022-12-18T04:12:26;17.67;;;10.60;;
39346;SDS011;26262;49.836;6.632;2022-12-18T04:14:54;16.73;;;9.50;;
39346;SDS011;26262;49.836;6.632;2022-12-18T04:17:20;17.13;;;10.03;;
39346;SDS011;26262;49.836;6.632;2022-12-18T04:19:46;18.93;;;9.70;;
39346;SDS011;26262;49.836;6.632;2022-12-18T04:22:12;17.43;;;9.53;;
39346;SDS011;26262;49.836;6.632;2022-12-18T04:24:37;18.00;;;9.53;;
39346;SDS011;26262;49.836;6.632;2022-12-18T04:27:03;18.20;;;8.93;;
39346;SDS011;26262;49.836;6.632;2022-12-18T04:29:29;18.57;;;9.87;;
39346;SDS011;26262;49.836;6.632;2022-12-18T04:31:54;17.73;;;10.00;;
39346;SDS011;26262;49.836;6.632;2022-12-18T04:34:20;19.53;;;10.30;;
39346;SDS011;26262;49.836;6.632;2022-12-18T04:36:46;19.93;;;9.03;;
39346;SDS011;26262;49.836;6.632;2022-12-18T04:39:11;22.10;;;9.57;;
39346;SDS011;26262;49.836;6.632;2022-12-18T04:41:37;21.27;;;9.63;;
39346;SDS011;26262;49.836;6.632;2022-12-18T04:44:03;20.97;;;10.43;;
39346;SDS011;26262;49.836;6.632;2022-12-18T04:46:29;18.30;;;9.57;;
39346;SDS011;26262;49.836;6.632;2022-12-18T04:48:55;15.57;;;9.60;;
39346;SDS011;26262;49.836;6.632;2022-12-18T04:51:20;19.70;;;9.40;;
39346;SDS011;26262;49.836;6.632;2022-12-18T04:53:46;18.80;;;10.13;;
39346;SDS011;26262;49.836;6.632;2022-12-18T04:56:12;16.90;;;9.50;;
39346;SDS011;26262;49.836;6.632;2022-12-18T04:58:40;19.50;;;10.20;;
39346;SDS011;26262;49.836;6.632;2022-12-18T05:01:07;19.08;;;9.73;;
39346;SDS011;26262;49.836;6.632;2022-12-18T05:03:33;18.80;;;10.10;;
39346;SDS011;26262;49.836;6.632;2022-12-18T05:05:59;20.50;;;10.20;;
39346;SDS011;26262;49.836;6.632;2022-12-18T05:08:25;21.50;;;11.60;;
39346;SDS011;26262;49.836;6.632;2022-12-18T05:11:01;21.97;;;11.00;;
39346;SDS011;26262;49.836;6.632;2022-12-18T05:13:28;22.02;;;11.38;;
39346;SDS011;26262;49.836;6.632;2022-12-18T05:15:54;19.17;;;10.33;;
39346;SDS011;26262;49.836;6.632;2022-12-18T05:18:20;19.57;;;11.17;;
39346;SDS011;26262;49.836;6.632;2022-12-18T05:20:47;20.97;;;11.27;;
39346;SDS011;26262;49.836;6.632;2022-12-18T05:23:12;19.57;;;10.40;;
39346;SDS011;26262;49.836;6.632;2022-12-18T05:25:38;18.10;;;10.17;;
39346;SDS011;26262;49.836;6.632;2022-12-18T05:28:03;16.70;;;9.20;;
39346;SDS011;26262;49.836;6.632;2022-12-18T05:30:29;19.70;;;10.63;;
39346;SDS011;26262;49.836;6.632;2022-12-18T05:32:54;19.57;;;10.63;;
39346;SDS011;26262;49.836;6.632;2022-12-18T05:35:20;22.13;;;10.70;;
39346;SDS011;26262;49.836;6.632;2022-12-18T05:37:45;19.53;;;10.03;;
39346;SDS011;26262;49.836;6.632;2022-12-18T05:40:11;23.90;;;12.90;;
39346;SDS011;26262;49.836;6.632;2022-12-18T05:42:37;23.43;;;11.50;;
39346;SDS011;26262;49.836;6.632;2022-12-18T05:45:03;22.00;;;10.70;;
39346;SDS011;26262;49.836;6.632;2022-12-18T05:47:29;20.03;;;10.57;;
39346;SDS011;26262;49.836;6.632;2022-12-18T05:49:55;17.53;;;9.20;;
39346;SDS011;26262;49.836;6.632;2022-12-18T05:52:21;18.53;;;9.70;;
39346;SDS011;26262;49.836;6.632;2022-12-18T05:54:46;17.67;;;9.47;;
39346;SDS011;26262;49.836;6.632;2022-12-18T05:57:12;20.60;;;9.97;;
39346;SDS011;26262;49.836;6.632;2022-12-18T05:59:37;17.93;;;9.63;;
39346;SDS011;26262;49.836;6.632;2022-12-18T06:02:03;22.83;;;10.83;;
39346;SDS011;26262;49.836;6.632;2022-12-18T06:04:28;22.43;;;10.53;;
39346;SDS011;26262;49.836;6.632;2022-12-18T06:06:54;24.20;;;11.47;;
39346;SDS011;26262;49.836;6.632;2022-12-18T06:09:19;22.07;;;11.07;;
39346;SDS011;26262;49.836;6.632;2022-12-18T06:11:45;21.93;;;10.40;;
39346;SDS011;26262;49.836;6.632;2022-12-18T06:14:10;25.30;;;12.13;;
39346;SDS011;26262;49.836;6.632;2022-12-18T06:16:36;23.90;;;11.43;;
39346;SDS011;26262;49.836;6.632;2022-12-18T06:19:03;18.93;;;10.57;;
39346;SDS011;26262;49.836;6.632;2022-12-18T06:21:30;17.40;;;10.13;;
39346;SDS011;26262;49.836;6.632;2022-12-18T06:23:57;20.63;;;11.27;;
39346;SDS011;26262;49.836;6.632;2022-12-18T06:26:22;18.13;;;9.67;;
39346;SDS011;26262;49.836;6.632;2022-12-18T06:28:48;21.67;;;10.57;;
39346;SDS011;26262;49.836;6.632;2022-12-18T06:31:14;19.77;;;10.30;;
39346;SDS011;26262;49.836;6.632;2022-12-18T06:33:40;20.33;;;10.63;;
39346;SDS011;26262;49.836;6.632;2022-12-18T06:36:07;16.83;;;9.57;;
39346;SDS011;26262;49.836;6.632;2022-12-18T06:38:35;16.70;;;9.40;;
39346;SDS011;26262;49.836;6.632;2022-12-18T06:41:09;18.17;;;8.83;;
39346;SDS011;26262;49.836;6.632;2022-12-18T06:43:36;17.53;;;10.30;;
39346;SDS011;26262;49.836;6.632;2022-12-18T06:46:02;19.90;;;9.93;;
39346;SDS011;26262;49.836;6.632;2022-12-18T06:48:28;18.30;;;9.67;;
39346;SDS011;26262;49.836;6.632;2022-12-18T06:50:55;16.90;;;9.03;;
39346;SDS011;26262;49.836;6.632;2022-12-18T06:53:20;17.90;;;9.90;;
39346;SDS011;26262;49.836;6.632;2022-12-18T06:55:47;20.00;;;10.97;;
39346;SDS011;26262;49.836;6.632;2022-12-18T06:58:12;20.90;;;11.37;;
39346;SDS011;26262;49.836;6.632;2022-12-18T07:00:38;21.23;;;11.80;;
39346;SDS011;26262;49.836;6.632;2022-12-18T07:03:04;22.53;;;10.67;;
39346;SDS011;26262;49.836;6.632;2022-12-18T07:05:29;18.57;;;10.07;;
39346;SDS011;26262;49.836;6.632;2022-12-18T07:07:55;19.00;;;9.60;;
39346;SDS011;26262;49.836;6.632;2022-12-18T07:10:20;16.83;;;10.23;;
39346;SDS011;26262;49.836;6.632;2022-12-18T07:12:46;18.20;;;9.93;;
39346;SDS011;26262;49.836;6.632;2022-12-18T07:15:12;19.43;;;10.87;;
39346;SDS011;26262;49.836;6.632;2022-12-18T07:17:37;19.40;;;10.67;;
39346;SDS011;26262;49.836;6.632;2022-12-18T07:20:03;21.20;;;11.23;;
39346;SDS011;26262;49.836;6.632;2022-12-18T07:22:28;19.03;;;9.97;;
39346;SDS011;26262;49.836;6.632;2022-12-18T07:24:54;20.23;;;9.97;;
39346;SDS011;26262;49.836;6.632;2022-12-18T07:27:20;21.10;;;10.80;;
39346;SDS011;26262;49.836;6.632;2022-12-18T07:29:45;25.73;;;12.67;;
39346;SDS011;26262;49.836;6.632;2022-12-18T07:32:11;26.90;;;13.13;;
39346;SDS011;26262;49.836;6.632;2022-12-18T07:34:36;27.37;;;13.13;;
39346;SDS011;26262;49.836;6.632;2022-12-18T07:37:02;26.87;;;11.97;;
39346;SDS011;26262;49.836;6.632;2022-12-18T07:39:27;26.30;;;14.50;;
39346;SDS011;26262;49.836;6.632;2022-12-18T07:41:53;20.23;;;11.50;;
39346;SDS011;26262;49.836;6.632;2022-12-18T07:44:37;22.67;;;12.60;;
39346;SDS011;26262;49.836;6.632;2022-12-18T07:47:03;28.67;;;14.60;;
39346;SDS011;26262;49.836;6.632;2022-12-18T07:49:29;23.70;;;13.13;;
39346;SDS011;26262;49.836;6.632;2022-12-18T07:51:55;24.13;;;14.17;;
39346;SDS011;26262;49.836;6.632;2022-12-18T07:54:22;22.98;;;11.18;;
39346;SDS011;26262;49.836;6.632;2022-12-18T07:56:48;19.23;;;10.10;;
39346;SDS011;26262;49.836;6.632;2022-12-18T07:59:14;19.03;;;10.70;;
39346;SDS011;26262;49.836;6.632;2022-12-18T08:01:39;19.47;;;10.43;;
39346;SDS011;26262;49.836;6.632;2022-12-18T08:04:05;22.03;;;11.27;;
39346;SDS011;26262;49.836;6.632;2022-12-18T08:06:31;25.53;;;12.53;;
39346;SDS011;26262;49.836;6.632;2022-12-18T08:08:56;23.03;;;12.37;;
39346;SDS011;26262;49.836;6.632;2022-12-18T08:11:22;22.90;;;12.00;;
39346;SDS011;26262;49.836;6.632;2022-12-18T08:13:50;23.90;;;12.77;;
39346;SDS011;26262;49.836;6.632;2022-12-18T08:16:16;25.63;;;12.63;;
39346;SDS011;26262;49.836;6.632;2022-12-18T08:18:42;23.07;;;13.50;;
39346;SDS011;26262;49.836;6.632;2022-12-18T08:21:12;22.20;;;13.23;;
39346;SDS011;26262;49.836;6.632;2022-12-18T08:23:52;20.73;;;12.53;;
39346;SDS011;26262;49.836;6.632;2022-12-18T08:26:19;27.80;;;14.37;;
39346;SDS011;26262;49.836;6.632;2022-12-18T08:28:45;30.97;;;16.33;;
39346;SDS011;26262;49.836;6.632;2022-12-18T08:31:10;31.60;;;17.93;;
39346;SDS011;26262;49.836;6.632;2022-12-18T08:33:36;34.47;;;17.43;;
39346;SDS011;26262;49.836;6.632;2022-12-18T08:36:03;29.43;;;14.33;;
39346;SDS011;26262;49.836;6.632;2022-12-18T08:38:29;26.08;;;13.57;;
39346;SDS011;26262;49.836;6.632;2022-12-18T08:41:14;30.63;;;14.95;;
39346;SDS011;26262;49.836;6.632;2022-12-18T08:43:42;28.07;;;15.73;;
39346;SDS011;26262;49.836;6.632;2022-12-18T08:46:27;31.30;;;16.60;;
39346;SDS011;26262;49.836;6.632;2022-12-18T08:48:56;26.53;;;14.70;;
39346;SDS011;26262;49.836;6.632;2022-12-18T08:51:21;26.30;;;15.93;;
39346;SDS011;26262;49.836;6.632;2022-12-18T08:53:47;32.43;;;16.37;;
39346;SDS011;26262;49.836;6.632;2022-12-18T08:56:13;29.37;;;15.50;;
39346;SDS011;26262;49.836;6.632;2022-12-18T08:58:39;28.27;;;14.57;;
39346;SDS011;26262;49.836;6.632;2022-12-18T09:01:06;26.03;;;15.30;;
39346;SDS011;26262;49.836;6.632;2022-12-18T09:03:34;24.57;;;14.87;;
39346;SDS011;26262;49.836;6.632;2022-12-18T09:06:00;31.30;;;16.67;;
39346;SDS011;26262;49.836;6.632;2022-12-18T09:08:26;31.77;;;16.27;;
39346;SDS011;26262;49.836;6.632;2022-12-18T09:10:51;29.63;;;15.40;;
39346;SDS011;26262;49.836;6.632;2022-12-18T09:13:17;28.23;;;14.93;;
39346;SDS011;26262;49.836;6.632;2022-12-18T09:15:44;34.47;;;19.20;;
39346;SDS011;26262;49.836;6.632;2022-12-18T09:18:12;35.13;;;19.70;;
39346;SDS011;26262;49.836;6.632;2022-12-18T09:20:39;31.80;;;17.10;;
39346;SDS011;26262;49.836;6.632;2022-12-18T09:23:05;31.73;;;17.63;;
39346;SDS011;26262;49.836;6.632;2022-12-18T09:25:31;28.47;;;17.63;;
39346;SDS011;26262;49.836;6.632;2022-12-18T09:28:05;25.85;;;14.75;;
39346;SDS011;26262;49.836;6.632;2022-12-18T09:30:31;25.60;;;14.73;;
39346;SDS011;26262;49.836;6.632;2022-12-18T09:32:59;27.77;;;15.38;;
39346;SDS011;26262;49.836;6.632;2022-12-18T09:35:25;25.03;;;13.93;;
39346;SDS011;26262;49.836;6.632;2022-12-18T09:37:52;23.90;;;14.38;;
39346;SDS011;26262;49.836;6.632;2022-12-18T09:40:19;27.53;;;15.40;;
39346;SDS011;26262;49.836;6.632;2022-12-18T09:42:51;28.07;;;16.10;;
39346;SDS011;26262;49.836;6.632;2022-12-18T09:45:38;25.80;;;14.83;;
39346;SDS011;26262;49.836;6.632;2022-12-18T09:48:14;23.93;;;14.20;;
39346;SDS011;26262;49.836;6.632;2022-12-18T09:50:46;30.30;;;15.50;;
39346;SDS011;26262;49.836;6.632;2022-12-18T09:53:18;28.40;;;14.30;;
39346;SDS011;26262;49.836;6.632;2022-12-18T09:55:48;26.47;;;14.77;;
39346;SDS011;26262;49.836;6.632;2022-12-18T09:58:37;27.03;;;13.23;;
39346;SDS011;26262;49.836;6.632;2022-12-18T10:01:12;29.63;;;16.10;;
39346;SDS011;26262;49.836;6.632;2022-12-18T10:03:43;28.23;;;16.63;;
39346;SDS011;26262;49.836;6.632;2022-12-18T10:06:11;29.57;;;16.10;;
39346;SDS011;26262;49.836;6.632;2022-12-18T10:13:48;33.13;;;18.60;;
39346;SDS011;26262;49.836;6.632;2022-12-18T10:17:18;30.77;;;17.40;;
39346;SDS011;26262;49.836;6.632;2022-12-18T10:22:43;31.93;;;16.77;;
39346;SDS011;26262;49.836;6.632;2022-12-18T10:27:39;31.33;;;17.17;;
39346;SDS011;26262;49.836;6.632;2022-12-18T10:30:12;34.97;;;16.93;;
39346;SDS011;26262;49.836;6.632;2022-12-18T10:32:39;31.77;;;17.97;;
39346;SDS011;26262;49.836;6.632;2022-12-18T10:35:07;28.83;;;16.60;;
39346;SDS011;26262;49.836;6.632;2022-12-18T10:37:58;31.58;;;19.30;;
39346;SDS011;26262;49.836;6.632;2022-12-18T10:40:28;38.42;;;21.67;;
39346;SDS011;26262;49.836;6.632;2022-12-18T10:43:04;34.60;;;18.33;;
39346;SDS011;26262;49.836;6.632;2022-12-18T10:45:36;36.70;;;20.67;;
39346;SDS011;26262;49.836;6.632;2022-12-18T10:48:01;30.27;;;17.13;;
39346;SDS011;26262;49.836;6.632;2022-12-18T10:50:30;34.53;;;16.73;;
39346;SDS011;26262;49.836;6.632;2022-12-18T10:52:58;30.77;;;16.10;;
39346;SDS011;26262;49.836;6.632;2022-12-18T10:55:35;27.77;;;15.63;;
39346;SDS011;26262;49.836;6.632;2022-12-18T11:00:45;27.93;;;16.07;;
39346;SDS011;26262;49.836;6.632;2022-12-18T11:03:32;28.70;;;17.80;;
39346;SDS011;26262;49.836;6.632;2022-12-18T11:06:17;31.47;;;20.07;;
39346;SDS011;26262;49.836;6.632;2022-12-18T11:09:06;28.77;;;16.47;;
39346;SDS011;26262;49.836;6.632;2022-12-18T11:11:51;28.07;;;16.07;;
39346;SDS011;26262;49.836;6.632;2022-12-18T11:14:42;31.67;;;19.33;;
39346;SDS011;26262;49.836;6.632;2022-12-18T11:17:17;29.30;;;19.10;;
39346;SDS011;26262;49.836;6.632;2022-12-18T11:19:53;25.70;;;16.27;;
39346;SDS011;26262;49.836;6.632;2022-12-18T11:22:23;27.57;;;15.40;;
39346;SDS011;26262;49.836;6.632;2022-12-18T11:24:55;28.80;;;16.93;;
39346;SDS011;26262;49.836;6.632;2022-12-18T11:27:23;29.37;;;17.53;;
39346;SDS011;26262;49.836;6.632;2022-12-18T11:29:49;25.97;;;15.13;;
39346;SDS011;26262;49.836;6.632;2022-12-18T11:34:52;24.00;;;14.23;;
39346;SDS011;26262;49.836;6.632;2022-12-18T11:37:24;24.90;;;14.50;;
39346;SDS011;26262;49.836;6.632;2022-12-18T11:45:25;24.20;;;13.77;;
39346;SDS011;26262;49.836;6.632;2022-12-18T11:47:57;22.33;;;14.27;;
39346;SDS011;26262;49.836;6.632;2022-12-18T11:53:01;24.57;;;15.10;;
39346;SDS011;26262;49.836;6.632;2022-12-18T11:55:39;24.67;;;14.20;;
39346;SDS011;26262;49.836;6.632;2022-12-18T12:01:30;21.30;;;12.67;;
39346;SDS011;26262;49.836;6.632;2022-12-18T12:07:12;21.63;;;13.50;;
39346;SDS011;26262;49.836;6.632;2022-12-18T12:18:09;26.53;;;15.00;;
39346;SDS011;26262;49.836;6.632;2022-12-18T12:21:04;26.63;;;15.60;;
39346;SDS011;26262;49.836;6.632;2022-12-18T12:23:43;22.40;;;14.50;;
39346;SDS011;26262;49.836;6.632;2022-12-18T12:26:29;27.93;;;14.00;;
39346;SDS011;26262;49.836;6.632;2022-12-18T12:31:59;25.13;;;16.03;;
39346;SDS011;26262;49.836;6.632;2022-12-18T12:34:46;26.60;;;15.77;;
39346;SDS011;26262;49.836;6.632;2022-12-18T12:37:39;28.47;;;17.60;;
39346;SDS011;26262;49.836;6.632;2022-12-18T12:40:23;27.45;;;17.00;;
39346;SDS011;26262;49.836;6.632;2022-12-18T12:42:56;30.83;;;17.13;;
39346;SDS011;26262;49.836;6.632;2022-12-18T12:53:50;28.40;;;17.00;;
39346;SDS011;26262;49.836;6.632;2022-12-18T12:56:18;37.75;;;23.10;;
39346;SDS011;26262;49.836;6.632;2022-12-18T12:58:52;30.20;;;18.90;;
39346;SDS011;26262;49.836;6.632;2022-12-18T13:03:54;35.83;;;23.97;;
39346;SDS011;26262;49.836;6.632;2022-12-18T13:12:54;28.47;;;18.17;;
39346;SDS011;26262;49.836;6.632;2022-12-18T13:15:24;28.70;;;18.43;;
39346;SDS011;26262;49.836;6.632;2022-12-18T13:18:02;25.50;;;17.03;;
39346;SDS011;26262;49.836;6.632;2022-12-18T13:20:44;27.13;;;17.30;;
39346;SDS011;26262;49.836;6.632;2022-12-18T13:25:52;49.20;;;28.25;;
39346;SDS011;26262;49.836;6.632;2022-12-18T13:30:58;29.80;;;18.00;;
39346;SDS011;26262;49.836;6.632;2022-12-18T13:33:37;28.00;;;17.57;;
39346;SDS011;26262;49.836;6.632;2022-12-18T13:39:09;27.70;;;17.33;;
39346;SDS011;26262;49.836;6.632;2022-12-18T13:41:34;29.03;;;18.33;;
39346;SDS011;26262;49.836;6.632;2022-12-18T13:44:10;32.87;;;19.73;;
39346;SDS011;26262;49.836;6.632;2022-12-18T13:46:50;31.93;;;20.10;;
39346;SDS011;26262;49.836;6.632;2022-12-18T13:54:51;32.97;;;21.37;;
39346;SDS011;26262;49.836;6.632;2022-12-18T13:57:29;32.00;;;20.90;;
39346;SDS011;26262;49.836;6.632;2022-12-18T13:59:56;39.90;;;23.83;;
39346;SDS011;26262;49.836;6.632;2022-12-18T14:02:23;35.22;;;22.27;;
39346;SDS011;26262;49.836;6.632;2022-12-18T14:04:51;33.57;;;20.43;;
39346;SDS011;26262;49.836;6.632;2022-12-18T14:07:22;32.53;;;20.43;;
39346;SDS011;26262;49.836;6.632;2022-12-18T14:09:50;34.90;;;19.07;;
39346;SDS011;26262;49.836;6.632;2022-12-18T14:12:20;31.57;;;18.73;;
39346;SDS011;26262;49.836;6.632;2022-12-18T14:20:50;31.10;;;19.83;;
39346;SDS011;26262;49.836;6.632;2022-12-18T14:23:25;31.07;;;17.43;;
39346;SDS011;26262;49.836;6.632;2022-12-18T14:26:02;30.47;;;20.00;;
39346;SDS011;26262;49.836;6.632;2022-12-18T14:28:44;31.53;;;19.47;;
39346;SDS011;26262;49.836;6.632;2022-12-18T14:31:16;33.30;;;20.60;;
39346;SDS011;26262;49.836;6.632;2022-12-18T14:33:46;30.13;;;18.80;;
39346;SDS011;26262;49.836;6.632;2022-12-18T14:36:14;34.00;;;20.97;;
39346;SDS011;26262;49.836;6.632;2022-12-18T14:38:49;37.43;;;22.90;;
39346;SDS011;26262;49.836;6.632;2022-12-18T14:41:17;33.23;;;21.03;;
39346;SDS011;26262;49.836;6.632;2022-12-18T14:43:44;35.00;;;21.88;;
39346;SDS011;26262;49.836;6.632;2022-12-18T14:46:32;39.13;;;23.43;;
39346;SDS011;26262;49.836;6.632;2022-12-18T14:49:02;35.27;;;20.90;;
39346;SDS011;26262;49.836;6.632;2022-12-18T14:51:31;30.77;;;19.23;;
39346;SDS011;26262;49.836;6.632;2022-12-18T14:53:59;28.93;;;18.77;;
39346;SDS011;26262;49.836;6.632;2022-12-18T14:56:36;32.33;;;19.27;;
39346;SDS011;26262;49.836;6.632;2022-12-18T14:59:19;35.17;;;21.20;;
39346;SDS011;26262;49.836;6.632;2022-12-18T15:01:57;33.30;;;19.53;;
39346;SDS011;26262;49.836;6.632;2022-12-18T15:04:30;34.33;;;21.27;;
39346;SDS011;26262;49.836;6.632;2022-12-18T15:09:35;33.40;;;19.73;;
39346;SDS011;26262;49.836;6.632;2022-12-18T15:12:01;34.37;;;19.93;;
39346;SDS011;26262;49.836;6.632;2022-12-18T15:16:57;35.67;;;20.17;;
39346;SDS011;26262;49.836;6.632;2022-12-18T15:19:40;32.83;;;19.45;;
39346;SDS011;26262;49.836;6.632;2022-12-18T15:25:00;34.30;;;20.83;;
39346;SDS011;26262;49.836;6.632;2022-12-18T15:27:31;33.42;;;19.58;;
39346;SDS011;26262;49.836;6.632;2022-12-18T15:32:38;33.90;;;21.13;;
39346;SDS011;26262;49.836;6.632;2022-12-18T15:37:41;30.90;;;17.83;;
39346;SDS011;26262;49.836;6.632;2022-12-18T15:40:07;31.40;;;19.10;;
39346;SDS011;26262;49.836;6.632;2022-12-18T15:42:37;34.50;;;18.93;;
39346;SDS011;26262;49.836;6.632;2022-12-18T15:45:21;30.97;;;18.87;;
39346;SDS011;26262;49.836;6.632;2022-12-18T15:47:46;31.13;;;18.70;;
39346;SDS011;26262;49.836;6.632;2022-12-18T15:50:12;33.20;;;20.03;;
39346;SDS011;26262;49.836;6.632;2022-12-18T15:52:41;33.50;;;20.80;;
39346;SDS011;26262;49.836;6.632;2022-12-18T15:55:12;31.43;;;20.63;;
39346;SDS011;26262;49.836;6.632;2022-12-18T15:57:57;33.97;;;22.00;;
39346;SDS011;26262;49.836;6.632;2022-12-18T16:00:23;33.23;;;20.53;;
39346;SDS011;26262;49.836;6.632;2022-12-18T16:02:48;31.17;;;20.10;;
39346;SDS011;26262;49.836;6.632;2022-12-18T16:05:14;33.20;;;19.73;;
39346;SDS011;26262;49.836;6.632;2022-12-18T16:07:42;29.02;;;19.23;;
39346;SDS011;26262;49.836;6.632;2022-12-18T16:10:08;29.63;;;17.83;;
39346;SDS011;26262;49.836;6.632;2022-12-18T16:12:34;42.80;;;29.00;;
39346;SDS011;26262;49.836;6.632;2022-12-18T16:15:00;39.57;;;25.10;;
39346;SDS011;26262;49.836;6.632;2022-12-18T16:17:25;39.27;;;25.03;;
39346;SDS011;26262;49.836;6.632;2022-12-18T16:19:51;39.43;;;27.17;;
39346;SDS011;26262;49.836;6.632;2022-12-18T16:22:26;37.47;;;21.93;;
39346;SDS011;26262;49.836;6.632;2022-12-18T16:24:54;31.70;;;19.17;;
39346;SDS011;26262;49.836;6.632;2022-12-18T16:27:20;31.02;;;18.80;;
39346;SDS011;26262;49.836;6.632;2022-12-18T16:29:47;31.73;;;18.97;;